ALEXANDER.jpg

Le champion du Monde Ironman Craig Alexander et la Suissesse Caroline Steffen ont remporté hier le 70.3 de Singapour.

L'Australien, bien qu'étant sorti 5e de l'eau, a regagné 2 places lors de la partie vélo et a rattrapé son retard grâce à une prestation en course à pied dont lui seul a le secret. Il finira cependant a plus de 6' de son temps de 2009 (3:53:31), ceci en grande partie à cause de la chaleur accablante (33°C). Il devance le Sud-Africain James Cunnama de seulement 52 secondes. L'Australien Aaron Farlow prend la 3e place.

"Les conditions cette année étaient plus difficiles car il faisait bien plus humide qu'en 2009. Le plateau était également très relevé donc je suis vraiment content de l'avoir emporté aujourd'hui" a déclaré Craig Alexander.

Chez les femmes, la compétition n'a pas été aussi serrée. Malgré une piqure de méduse à son bras droit, Caroline Steffen bat le record de l'épreuve en 4:18:14. L'ancienne détentrice du meilleur chrono, la Britannique Jodie Swallow, 2e, est reléguée à plus de 8' de la Suissesse. L'Américaine Margaret Shapiro complète le podium en 4:31:37.

Top 10 Femmes :

  • 1 Caroline STEFFEN 04:18:14 Elite Female 1 00:28:15 02:21:44 01:25:53
  • 2 Jodie SWALLOW 04:26:32 Elite Female 2 00:26:10 02:21:01 01:37:07
  • 3 Margaret SHAPIRO 04:31:37 Elite Female 3 00:29:06 02:29:03 01:31:03
  • 4 Erin O'HARA 04:33:05 Elite Female 4 00:30:25 02:29:26 01:30:39
  • 5 Anna CLEAVER 04:34:57 Elite Female 5 00:28:03 02:31:55 01:32:23
  • 6 Kelly JARRETT 04:46:38 Elite Female 6 00:33:46 02:30:49 01:39:11
  • 7 Claire HORNER 04:50:44 Elite Female 7 00:32:58 02:36:33 01:38:27
  • 8 Jessica FLEMING 04:53:09 3539 Female 8 00:35:05 02:33:33 01:41:50
  • 9 Elly FRANKS 04:54:25 Elite Female 9 00:29:07 02:30:36 01:52:01
  • 10 Trudy FAWCETT 05:01:29 3539 Female 10 00:34:52 02:43:54 01:40:01

Top 10 Hommes :

  • 1 Craig ALEXANDER 03:53:31 Elite Male 1 00:26:08 02:09:48 01:15:30
  • 2 James CUNNAMA 03:54:23 Elite Male 2 00:27:58 02:07:35 01:16:01
  • 3 Aaron FARLOW 03:55:45 Elite Male 3 00:26:11 02:09:37 01:17:38
  • 4 Kent HORNER 04:03:28 Elite Male 4 00:26:07 02:09:55 01:25:24
  • 5 Stephen BAYLISS 04:06:51 Elite Male 5 00:26:09 02:09:44 01:29:00
  • 6 Domenico PASSUELLO 04:10:25 Elite Male 6 00:30:12 02:12:58 01:24:33
  • 7 Fredrik CRONEBORG 04:12:07 Elite Male 7 00:29:00 02:19:43 01:20:46
  • 8 Balazs CSOKE 04:14:28 Elite Male 8 00:26:09 02:09:50 01:36:08
  • 9 Caroline STEFFEN 04:18:14 Elite Female 1 00:28:15 02:21:44 01:25:53
  • 10 Bryan RHODES 04:19:32 Elite Male 9 00:26:05 02:09:43 01:41:28